Time;durP1;ratioP1;P1;durP2;ratioP2;P2;SDS_P1;SDS_P2;PMS_P1;PMS_P2;Temp;Humidity;BMP_temperature;BMP_pressure;BME280_temperature;BME280_humidity;BME280_pressure;Samples;Min_cycle;Max_cycle;Signal;HPM_P1;HPM_P2
2021/05/09 00:01:21;;;;;;;3.65;1.60;;;;;;;16.31;92.90;98732.66;5013253;28;20052;-86
2021/05/09 00:03:46;;;;;;;2.17;0.90;;;;;;;16.15;94.02;98736.31;5013961;28;20026;-86
2021/05/09 00:06:12;;;;;;;4.13;1.10;;;;;;;16.14;94.04;98733.84;5013732;28;20022;-86
2021/05/09 00:08:38;;;;;;;2.38;1.08;;;;;;;16.15;93.72;98744.25;5013673;28;20037;-86
2021/05/09 00:11:03;;;;;;;2.00;1.00;;;;;;;15.89;95.17;98728.75;5013296;28;20061;-86
2021/05/09 00:13:29;;;;;;;3.78;1.27;;;;;;;15.91;95.43;98731.22;5013309;28;20049;-86
2021/05/09 00:15:54;;;;;;;5.13;1.10;;;;;;;16.18;93.52;98733.28;5013518;28;20026;-86
2021/05/09 00:18:19;;;;;;;6.43;0.75;;;;;;;16.23;92.58;98719.47;5012935;28;20026;-86
2021/05/09 00:20:45;;;;;;;2.67;0.93;;;;;;;16.35;92.51;98718.03;5012893;28;21932;-86
2021/05/09 00:23:11;;;;;;;4.65;1.05;;;;;;;16.12;93.46;98720.75;5013249;28;20052;-86
2021/05/09 00:25:36;;;;;;;7.50;1.20;;;;;;;15.98;93.91;98711.00;5013183;28;20037;-86
2021/05/09 00:28:02;;;;;;;2.47;1.40;;;;;;;16.24;92.43;98710.56;5013298;28;20388;-86
2021/05/09 00:30:27;;;;;;;3.90;1.35;;;;;;;15.94;94.44;98704.41;5012734;28;20057;-87
2021/05/09 00:32:53;;;;;;;5.38;1.30;;;;;;;16.03;94.27;98705.97;5013408;28;20056;-87
2021/05/09 00:35:18;;;;;;;3.20;0.90;;;;;;;16.40;91.62;98694.47;5013142;28;20025;-86
2021/05/09 00:37:43;;;;;;;3.95;1.08;;;;;;;16.60;90.22;98704.50;5013125;28;20048;-86
2021/05/09 00:40:10;;;;;;;4.38;1.10;;;;;;;16.53;90.98;98698.28;5013113;28;20033;-87
2021/05/09 00:42:36;;;;;;;3.42;0.73;;;;;;;16.69;90.25;98698.09;5012539;28;20049;-87
2021/05/09 00:45:06;;;;;;;3.22;1.35;;;;;;;16.43;90.81;98688.00;5012744;28;20582;-87
2021/05/09 00:47:31;;;;;;;4.22;1.88;;;;;;;16.28;92.79;98687.19;5012513;28;20038;-87
2021/05/09 00:49:57;;;;;;;7.75;1.88;;;;;;;16.28;92.80;98681.88;5012818;28;20034;-87
2021/05/09 00:52:24;;;;;;;6.75;1.70;;;;;;;16.43;91.87;98678.22;5012356;28;20061;-87
2021/05/09 00:54:58;;;;;;;4.10;1.20;;;;;;;16.54;90.67;98674.25;5012482;28;20515;-87
2021/05/09 00:57:24;;;;;;;4.28;1.38;;;;;;;16.45;91.96;98668.25;5012369;28;20072;-87
2021/05/09 00:59:51;;;;;;;6.78;1.60;;;;;;;16.01;94.74;98673.56;5012426;28;20472;-86
2021/05/09 01:02:18;;;;;;;3.55;1.10;;;;;;;16.22;94.05;98665.72;5012353;28;20113;-86
2021/05/09 01:04:45;;;;;;;4.05;1.67;;;;;;;16.17;94.09;98656.66;5012448;28;20483;-86
2021/05/09 01:07:13;;;;;;;10.75;1.67;;;;;;;16.09;94.71;98657.56;5012204;28;20033;-86
2021/05/09 01:09:38;;;;;;;6.57;1.80;;;;;;;16.22;94.09;98659.59;5012305;28;20022;-86
2021/05/09 01:12:04;;;;;;;3.47;1.50;;;;;;;16.22;94.14;98649.00;5012075;28;20136;-86
2021/05/09 01:14:30;;;;;;;5.40;1.45;;;;;;;16.26;94.00;98650.28;5012401;28;20030;-86
2021/05/09 01:16:55;;;;;;;4.72;1.77;;;;;;;16.02;95.70;98659.31;5012216;28;20026;-86
2021/05/09 01:19:21;;;;;;;6.93;1.75;;;;;;;16.14;94.28;98649.09;5011673;28;20490;-86
2021/05/09 01:21:47;;;;;;;9.25;1.70;;;;;;;16.11;94.61;98655.56;5012209;28;20104;-86
2021/05/09 01:24:13;;;;;;;6.18;2.08;;;;;;;15.97;96.16;98661.69;5012156;28;20583;-86
2021/05/09 01:26:38;;;;;;;6.38;2.05;;;;;;;16.11;94.57;98634.38;5012138;28;20054;-86
2021/05/09 01:29:03;;;;;;;10.32;2.75;;;;;;;15.94;95.95;98636.41;5011986;28;20356;-86
2021/05/09 01:31:29;;;;;;;17.15;3.65;;;;;;;16.13;95.31;98632.38;5011984;28;20513;-86
2021/05/09 01:33:54;;;;;;;10.50;3.17;;;;;;;16.09;94.99;98633.75;5012182;28;20061;-86
2021/05/09 01:36:20;;;;;;;13.95;3.42;;;;;;;16.22;94.06;98633.13;5012180;28;20033;-86
2021/05/09 01:38:45;;;;;;;10.80;3.30;;;;;;;16.18;94.50;98623.91;5012156;28;20416;-86
2021/05/09 01:41:11;;;;;;;11.70;3.92;;;;;;;15.96;95.42;98615.88;5011918;28;20065;-86
2021/05/09 01:43:37;;;;;;;12.30;4.25;;;;;;;16.13;94.64;98621.78;5014365;28;20030;-86
2021/05/09 01:46:03;;;;;;;12.50;3.72;;;;;;;16.29;94.15;98612.84;5016085;28;20030;-86
2021/05/09 01:48:28;;;;;;;12.25;3.22;;;;;;;16.51;92.04;98616.38;5015646;28;20030;-86
2021/05/09 01:50:54;;;;;;;13.70;3.58;;;;;;;16.56;91.57;98611.31;4998309;28;20471;-86
2021/05/09 01:53:19;;;;;;;11.82;3.35;;;;;;;16.33;93.35;98608.81;4998274;28;20109;-86
2021/05/09 01:55:45;;;;;;;13.13;3.10;;;;;;;16.04;95.45;98599.91;5016226;28;20038;-86
2021/05/09 01:58:10;;;;;;;8.80;2.70;;;;;;;16.18;94.66;98600.06;5015844;28;20101;-86
2021/05/09 02:00:35;;;;;;;10.27;3.03;;;;;;;16.36;93.47;98597.03;5015748;28;20472;-85
2021/05/09 02:03:01;;;;;;;9.57;2.30;;;;;;;16.43;93.20;98608.53;5015602;28;20075;-86
2021/05/09 02:05:26;;;;;;;7.75;2.30;;;;;;;16.33;93.46;98594.75;5015513;28;20026;-85
2021/05/09 02:07:52;;;;;;;8.05;2.15;;;;;;;16.35;93.92;98587.44;5015418;28;20037;-86
2021/05/09 02:10:17;;;;;;;9.18;2.05;;;;;;;16.26;93.33;98582.25;5015499;28;20032;-86
2021/05/09 02:12:43;;;;;;;6.03;1.38;;;;;;;16.19;94.26;98565.47;5015343;28;20088;-86
2021/05/09 02:15:09;;;;;;;15.90;2.92;;;;;;;16.16;94.09;98592.31;5015704;28;20045;-86
2021/05/09 02:17:35;;;;;;;6.35;2.08;;;;;;;16.29;93.01;98577.56;5015303;28;20115;-86
2021/05/09 02:20:03;;;;;;;11.35;2.05;;;;;;;16.04;94.79;98584.00;5015552;28;20495;-86
2021/05/09 02:22:28;;;;;;;12.15;2.63;;;;;;;16.01;94.35;98578.25;5015255;28;20109;-86
2021/05/09 02:24:53;;;;;;;14.02;2.63;;;;;;;16.04;94.67;98578.72;4997743;28;20157;-86
2021/05/09 02:27:18;;;;;;;11.95;2.67;;;;;;;15.89;95.82;98583.19;5015122;28;20049;-86
2021/05/09 02:29:44;;;;;;;7.25;2.00;;;;;;;15.96;94.97;98592.06;5015056;28;20112;-86
2021/05/09 02:32:09;;;;;;;7.95;2.38;;;;;;;16.09;94.76;98593.22;5014825;28;20037;-86
2021/05/09 02:34:35;;;;;;;12.10;2.88;;;;;;;16.20;94.10;98582.16;4997397;28;20022;-86
2021/05/09 02:37:03;;;;;;;6.38;2.05;;;;;;;15.80;96.59;98585.13;5015361;28;20422;-85
2021/05/09 02:39:28;;;;;;;6.90;1.70;;;;;;;15.87;96.23;98587.84;5015023;28;20021;-86
2021/05/09 02:41:54;;;;;;;9.57;2.47;;;;;;;15.98;95.79;98579.44;5014972;28;20471;-86
2021/05/09 02:44:19;;;;;;;4.97;1.83;;;;;;;16.26;94.04;98586.72;5014855;28;20049;-85
2021/05/09 02:46:44;;;;;;;6.75;2.05;;;;;;;16.03;94.94;98584.19;5014805;28;20034;-86
2021/05/09 02:49:10;;;;;;;4.25;1.73;;;;;;;15.97;95.69;98585.75;5014460;28;20033;-86
2021/05/09 02:51:35;;;;;;;5.13;1.77;;;;;;;15.95;95.26;98597.53;5014809;28;20030;-86
2021/05/09 02:54:01;;;;;;;4.50;2.03;;;;;;;16.01;95.25;98586.19;5014152;28;20558;-86
2021/05/09 02:56:26;;;;;;;6.45;1.75;;;;;;;16.01;94.90;98583.56;5014368;28;20377;-86
2021/05/09 02:58:51;;;;;;;4.95;1.60;;;;;;;15.72;96.48;98574.59;4997097;28;20030;-86
2021/05/09 03:01:17;;;;;;;7.93;1.60;;;;;;;15.82;96.32;98574.34;5014490;28;20476;-86
2021/05/09 03:03:42;;;;;;;6.57;1.80;;;;;;;15.80;96.08;98563.13;5014611;28;20476;-85
2021/05/09 03:06:07;;;;;;;6.38;1.58;;;;;;;15.99;94.77;98546.66;5014457;28;20101;-86
2021/05/09 03:08:34;;;;;;;6.75;1.60;;;;;;;16.18;94.41;98557.72;5014380;28;20050;-85
2021/05/09 03:11:00;;;;;;;7.50;1.60;;;;;;;15.86;95.10;98560.56;5014076;28;20076;-85
2021/05/09 03:13:25;;;;;;;5.38;2.45;;;;;;;16.18;94.36;98552.41;5014300;28;20380;-85
2021/05/09 03:15:50;;;;;;;6.32;1.65;;;;;;;16.19;93.87;98543.44;5014325;28;20050;-85
2021/05/09 03:18:16;;;;;;;5.85;1.42;;;;;;;16.16;93.46;98555.22;5014148;28;20032;-85
2021/05/09 03:20:41;;;;;;;6.68;1.90;;;;;;;16.23;93.33;98558.78;5013893;28;20110;-86
2021/05/09 03:23:07;;;;;;;5.70;1.98;;;;;;;16.46;92.64;98568.41;5014195;28;20415;-85
2021/05/09 03:25:32;;;;;;;6.18;1.73;;;;;;;16.15;93.85;98563.34;5014304;28;20030;-85
2021/05/09 03:27:58;;;;;;;4.03;1.30;;;;;;;16.21;94.21;98573.19;4996431;28;20022;-86
2021/05/09 03:30:24;;;;;;;4.10;1.27;;;;;;;16.05;95.11;98571.59;5014227;28;20049;-85
2021/05/09 03:32:49;;;;;;;4.60;1.48;;;;;;;16.06;95.03;98573.25;5014169;28;20483;-85
2021/05/09 03:35:15;;;;;;;3.80;1.55;;;;;;;16.33;92.95;98565.59;5013928;28;20104;-85
2021/05/09 03:37:40;;;;;;;6.45;1.45;;;;;;;16.41;92.12;98566.34;5014249;28;20066;-86
2021/05/09 03:40:08;;;;;;;2.85;1.10;;;;;;;16.17;94.64;98564.84;5013901;28;20057;-86
2021/05/09 03:42:34;;;;;;;5.10;1.10;;;;;;;16.08;94.65;98568.59;5013611;28;20026;-86
2021/05/09 03:45:00;;;;;;;4.22;0.90;;;;;;;16.25;94.27;98548.00;5013931;28;20401;-86
2021/05/09 03:47:26;;;;;;;2.83;1.00;;;;;;;16.29;93.84;98544.00;5013525;28;20167;-86
2021/05/09 03:49:55;;;;;;;3.05;0.77;;;;;;;16.23;93.49;98553.50;5013671;28;20412;-86
2021/05/09 03:52:21;;;;;;;2.50;0.90;;;;;;;16.29;93.21;98556.41;5013528;28;20482;-86
2021/05/09 03:54:47;;;;;;;2.50;0.77;;;;;;;16.33;93.54;98560.31;4995995;28;20071;-85
2021/05/09 03:57:13;;;;;;;1.95;1.08;;;;;;;16.24;93.77;98551.66;5013422;28;20052;-86
2021/05/09 03:59:39;;;;;;;2.55;0.70;;;;;;;16.10;94.21;98561.28;5013613;28;20029;-86
2021/05/09 04:02:04;;;;;;;3.20;0.40;;;;;;;16.03;95.37;98568.31;5013482;28;20475;-86
2021/05/09 04:04:30;;;;;;;1.70;0.60;;;;;;;16.00;95.51;98555.44;5013360;28;20022;-86
2021/05/09 04:06:55;;;;;;;2.15;0.55;;;;;;;16.29;92.66;98548.44;5012916;28;20063;-86
2021/05/09 04:09:21;;;;;;;1.33;0.50;;;;;;;16.09;94.31;98548.22;5013444;28;20052;-86
2021/05/09 04:11:46;;;;;;;3.72;0.82;;;;;;;16.06;93.84;98557.34;5013246;28;20380;-86
2021/05/09 04:14:11;;;;;;;1.23;0.60;;;;;;;15.95;94.72;98552.53;5013298;28;20365;-86
2021/05/09 04:16:37;;;;;;;1.80;0.90;;;;;;;16.25;92.91;98553.28;5013272;28;20030;-84
2021/05/09 04:19:02;;;;;;;2.85;0.85;;;;;;;16.06;93.77;98538.81;5013039;28;20029;-86
2021/05/09 04:21:27;;;;;;;4.45;1.02;;;;;;;16.10;93.89;98534.81;5012475;28;20034;-86
2021/05/09 04:23:53;;;;;;;2.95;0.90;;;;;;;16.24;92.92;98541.88;5013109;28;20104;-85
2021/05/09 04:26:18;;;;;;;2.85;0.73;;;;;;;16.09;93.98;98538.44;5012996;28;20395;-86
2021/05/09 04:28:44;;;;;;;2.97;0.90;;;;;;;16.30;92.85;98544.81;5012997;28;20464;-86
2021/05/09 04:31:09;;;;;;;2.92;0.80;;;;;;;16.27;92.94;98543.34;5013050;28;20054;-83
2021/05/09 04:33:34;;;;;;;2.72;0.90;;;;;;;16.18;92.96;98547.94;5012779;28;20088;-85
2021/05/09 04:36:00;;;;;;;3.60;1.08;;;;;;;15.95;94.31;98547.22;5012768;28;20018;-85
2021/05/09 04:38:25;;;;;;;3.50;0.98;;;;;;;16.09;93.60;98541.09;5012644;28;20026;-85
2021/05/09 04:40:51;;;;;;;2.25;0.93;;;;;;;15.88;95.24;98551.59;5012681;28;20428;-86
2021/05/09 04:43:18;;;;;;;2.45;0.95;;;;;;;16.18;93.47;98557.72;5012566;28;20022;-85
2021/05/09 04:45:51;;;;;;;2.95;1.35;;;;;;;16.28;92.46;98557.41;5012772;28;20384;-85
2021/05/09 04:48:17;;;;;;;3.38;1.13;;;;;;;16.16;92.98;98560.53;5012153;28;20097;-85
2021/05/09 04:50:43;;;;;;;2.95;0.90;;;;;;;16.06;93.45;98558.16;5012761;28;20018;-85
2021/05/09 04:53:24;;;;;;;1.60;0.88;;;;;;;15.89;94.61;98553.25;5012514;28;20038;-85
2021/05/09 04:55:49;;;;;;;0.60;0.55;;;;;;;16.14;93.40;98546.66;5012489;28;20057;-85
2021/05/09 04:58:15;;;;;;;2.63;1.08;;;;;;;16.31;91.47;98546.44;5012599;28;20057;-85
2021/05/09 05:00:40;;;;;;;4.80;0.93;;;;;;;16.14;92.54;98549.31;5012394;28;20472;-85
2021/05/09 05:03:06;;;;;;;5.05;1.00;;;;;;;16.11;93.23;98560.25;5012179;28;20171;-85
2021/05/09 05:05:31;;;;;;;4.50;1.25;;;;;;;16.35;92.49;98553.00;5012210;28;20489;-86
2021/05/09 05:07:56;;;;;;;2.88;1.13;;;;;;;16.46;91.78;98557.81;5012179;28;20084;-85
2021/05/09 05:10:22;;;;;;;2.47;1.05;;;;;;;16.32;91.26;98562.13;5012302;28;20045;-85
2021/05/09 05:12:47;;;;;;;4.80;1.55;;;;;;;15.71;94.56;98570.28;5012263;28;20026;-85
2021/05/09 05:15:13;;;;;;;3.33;1.15;;;;;;;15.87;94.12;98566.66;5012292;28;20557;-86
2021/05/09 05:17:38;;;;;;;2.63;1.00;;;;;;;16.09;92.42;98556.97;5011764;28;20476;-86
2021/05/09 05:20:05;;;;;;;4.00;1.40;;;;;;;16.09;91.73;98546.38;5012027;28;20026;-85
2021/05/09 05:22:30;;;;;;;2.80;1.40;;;;;;;16.13;91.36;98550.28;5012409;28;20036;-85
2021/05/09 05:24:55;;;;;;;5.00;1.63;;;;;;;16.17;91.38;98550.75;5012120;28;20472;-85
2021/05/09 05:27:21;;;;;;;7.13;1.60;;;;;;;16.37;90.18;98548.31;5012749;28;20044;-85
2021/05/09 05:29:46;;;;;;;4.78;1.55;;;;;;;16.28;90.10;98550.28;5012777;28;20026;-85
2021/05/09 05:32:11;;;;;;;7.00;1.50;;;;;;;15.96;91.39;98555.00;5012219;28;20045;-85
2021/05/09 05:34:37;;;;;;;4.80;1.50;;;;;;;16.09;91.46;98562.25;5012717;28;20351;-86
2021/05/09 05:37:02;;;;;;;3.58;1.85;;;;;;;15.98;92.04;98554.81;5012328;28;20053;-85
2021/05/09 05:39:27;;;;;;;5.32;1.40;;;;;;;16.01;92.00;98559.72;5012506;28;20026;-85
2021/05/09 05:41:53;;;;;;;5.63;1.70;;;;;;;15.87;92.78;98561.38;5012179;28;20105;-86
2021/05/09 05:44:19;;;;;;;6.00;1.13;;;;;;;15.98;90.90;98568.88;5012501;28;20030;-86
2021/05/09 05:46:44;;;;;;;2.05;1.20;;;;;;;16.22;89.29;98575.69;5012336;28;20018;-85
2021/05/09 05:49:09;;;;;;;2.10;0.68;;;;;;;16.04;88.85;98599.06;5011941;28;20018;-86
2021/05/09 05:51:35;;;;;;;3.10;0.47;;;;;;;15.99;88.97;98589.03;5012113;28;20109;-85
2021/05/09 05:54:00;;;;;;;2.88;0.60;;;;;;;16.19;87.38;98581.34;4994601;28;20022;-85
2021/05/09 05:56:26;;;;;;;2.42;0.40;;;;;;;16.31;86.42;98594.09;4994080;28;20076;-85
2021/05/09 05:58:52;;;;;;;0.43;0.20;;;;;;;16.29;86.79;98586.38;5012138;28;20081;-86
2021/05/09 06:01:18;;;;;;;5.78;0.57;;;;;;;16.19;86.64;98575.22;5011785;28;20028;-86
2021/05/09 06:03:43;;;;;;;0.57;0.38;;;;;;;16.33;84.87;98566.44;5011809;28;20026;-86
2021/05/09 06:06:09;;;;;;;1.95;0.40;;;;;;;16.53;84.93;98564.00;5011935;28;20441;-86
2021/05/09 06:08:35;;;;;;;0.35;0.20;;;;;;;16.63;84.49;98567.16;5011855;28;20088;-85
2021/05/09 06:11:00;;;;;;;1.83;0.30;;;;;;;16.54;83.97;98568.28;5011797;28;20029;-86
2021/05/09 06:13:27;;;;;;;1.08;0.20;;;;;;;16.38;84.29;98564.03;5011627;28;20075;-86
2021/05/09 06:15:53;;;;;;;1.80;0.30;;;;;;;16.39;84.58;98562.22;4994187;28;20034;-86
2021/05/09 06:18:18;;;;;;;1.25;0.20;;;;;;;16.68;83.91;98577.19;5011153;28;20037;-86
2021/05/09 06:20:44;;;;;;;1.30;0.30;;;;;;;16.43;84.28;98582.84;5010960;28;20030;-86
2021/05/09 06:23:10;;;;;;;0.25;0.20;;;;;;;16.62;84.22;98584.06;5011606;28;20034;-86
2021/05/09 06:25:36;;;;;;;1.73;0.40;;;;;;;16.72;83.04;98588.25;5011816;28;20057;-86
2021/05/09 06:28:02;;;;;;;1.00;0.20;;;;;;;16.57;82.70;98599.72;5011719;28;20064;-86
2021/05/09 06:30:28;;;;;;;0.65;0.20;;;;;;;16.78;82.23;98603.38;5014972;28;20058;-86
2021/05/09 06:32:54;;;;;;;3.67;0.30;;;;;;;16.70;82.11;98604.31;5014954;28;20033;-84
2021/05/09 06:35:20;;;;;;;0.52;0.10;;;;;;;16.50;81.43;98614.72;5015190;28;20460;-85
2021/05/09 06:37:46;;;;;;;0.98;0.30;;;;;;;16.61;80.92;98610.78;4997204;28;20468;-85
2021/05/09 06:40:12;;;;;;;1.05;0.20;;;;;;;16.82;80.69;98617.94;5014949;28;20022;-85
2021/05/09 06:42:37;;;;;;;1.70;0.30;;;;;;;17.12;78.96;98625.78;4997182;28;20034;-86
2021/05/09 06:45:11;;;;;;;1.05;0.20;;;;;;;17.36;77.51;98609.47;5014802;28;20053;-85
2021/05/09 06:47:36;;;;;;;1.80;0.50;;;;;;;17.38;77.04;98623.38;5014450;28;20037;-86
2021/05/09 06:50:02;;;;;;;0.98;0.28;;;;;;;17.79;76.50;98633.25;5014626;28;20025;-86
2021/05/09 06:52:27;;;;;;;1.25;0.20;;;;;;;17.61;76.76;98622.28;5014901;28;20037;-85
2021/05/09 06:54:54;;;;;;;2.17;0.38;;;;;;;17.77;76.46;98627.31;4997230;28;20022;-85
2021/05/09 06:57:19;;;;;;;3.45;0.50;;;;;;;17.94;75.56;98629.69;5014709;28;20468;-86
2021/05/09 06:59:44;;;;;;;0.95;0.20;;;;;;;17.77;75.61;98626.47;5014581;28;20029;-86
2021/05/09 07:02:10;;;;;;;1.35;0.30;;;;;;;17.53;76.59;98623.25;5014352;28;20092;-86
2021/05/09 07:04:35;;;;;;;0.73;0.20;;;;;;;17.92;76.01;98615.81;5014552;28;20022;-86
2021/05/09 07:07:01;;;;;;;0.77;0.40;;;;;;;17.79;74.99;98619.16;5014262;28;20024;-86
2021/05/09 07:09:26;;;;;;;1.17;0.32;;;;;;;17.95;75.16;98604.78;5013126;28;20499;-86
2021/05/09 07:11:51;;;;;;;1.08;0.30;;;;;;;18.20;75.20;98610.41;5013601;28;20025;-86
2021/05/09 07:14:17;;;;;;;0.82;0.22;;;;;;;18.19;74.65;98614.91;5002906;28;20034;-86
2021/05/09 07:16:42;;;;;;;2.42;0.40;;;;;;;17.74;71.82;98605.66;4994615;28;20026;-86
2021/05/09 07:19:09;;;;;;;4.07;0.70;;;;;;;17.65;73.60;98612.94;5012884;28;20494;-86
2021/05/09 07:21:45;;;;;;;1.75;0.73;;;;;;;17.91;73.21;98603.53;5004162;28;20034;-86
2021/05/09 07:24:10;;;;;;;1.60;0.30;;;;;;;17.90;72.79;98609.88;5014030;28;20037;-86
2021/05/09 07:26:36;;;;;;;1.60;0.40;;;;;;;18.27;72.78;98599.84;5014014;28;20018;-86
2021/05/09 07:29:02;;;;;;;0.77;0.30;;;;;;;18.36;67.85;98593.31;5013896;28;20384;-87
2021/05/09 07:31:27;;;;;;;2.00;0.30;;;;;;;17.94;71.13;98593.34;5013803;28;20526;-87
2021/05/09 07:33:52;;;;;;;1.10;0.30;;;;;;;18.32;69.21;98608.84;5014199;28;20041;-87
2021/05/09 07:36:18;;;;;;;2.13;0.50;;;;;;;18.42;69.23;98606.66;5013236;28;20042;-86
2021/05/09 07:38:43;;;;;;;1.27;0.43;;;;;;;19.03;67.99;98599.66;5013590;28;20030;-87
2021/05/09 07:41:09;;;;;;;2.33;0.70;;;;;;;20.46;65.87;98588.34;5013446;28;20036;-87
2021/05/09 07:43:34;;;;;;;1.25;0.28;;;;;;;20.95;64.68;98594.03;5007014;28;20038;-86
2021/05/09 07:46:00;;;;;;;3.65;0.95;;;;;;;20.84;62.71;98584.88;5008711;28;20022;-88
2021/05/09 07:48:26;;;;;;;2.88;0.50;;;;;;;20.62;61.80;98576.41;5025367;28;20026;-86
2021/05/09 07:50:51;;;;;;;2.20;0.45;;;;;;;20.69;62.32;98577.16;5035856;28;20022;-87
2021/05/09 07:53:18;;;;;;;2.15;0.45;;;;;;;20.66;60.94;98579.47;5033712;28;20076;-86
2021/05/09 07:55:44;;;;;;;1.73;0.30;;;;;;;21.05;62.64;98585.56;5034849;28;20034;-87
2021/05/09 07:58:21;;;;;;;2.95;0.35;;;;;;;21.38;61.89;98578.09;5035931;28;20048;-88
2021/05/09 08:00:47;;;;;;;4.05;0.30;;;;;;;21.22;58.61;98581.31;5037490;28;20017;-87
2021/05/09 08:03:13;;;;;;;1.08;0.30;;;;;;;20.64;61.13;98568.19;5047349;28;20091;-88
2021/05/09 08:05:39;;;;;;;1.85;0.40;;;;;;;20.19;60.25;98572.47;5050791;28;20471;-87
2021/05/09 08:08:04;;;;;;;3.60;0.60;;;;;;;19.63;63.77;98581.03;5034228;28;20053;-86
2021/05/09 08:10:36;;;;;;;4.65;0.40;;;;;;;20.72;61.43;98582.09;5035131;28;20033;-88
2021/05/09 08:13:06;;;;;;;2.88;0.52;;;;;;;20.80;61.36;98581.81;5029546;28;20028;-87
2021/05/09 08:15:32;;;;;;;2.78;0.50;;;;;;;21.11;59.53;98593.53;5031549;28;20034;-87
2021/05/09 08:17:58;;;;;;;4.57;0.60;;;;;;;20.38;60.53;98583.28;5029365;28;20022;-88
2021/05/09 08:20:25;;;;;;;2.42;0.50;;;;;;;20.83;59.99;98585.91;5025100;28;20033;-86
2021/05/09 08:22:50;;;;;;;2.38;0.60;;;;;;;20.37;59.41;98585.09;5033817;28;20038;-94
2021/05/09 08:25:16;;;;;;;3.40;0.55;;;;;;;21.00;58.69;98579.00;5037757;28;20037;-93
2021/05/09 08:27:43;;;;;;;3.05;0.50;;;;;;;21.72;57.47;98575.13;5037507;28;20022;-92
2021/05/09 08:30:09;;;;;;;3.17;0.85;;;;;;;22.18;55.80;98569.28;5037876;28;20061;-93
2021/05/09 08:32:35;;;;;;;2.13;0.32;;;;;;;23.08;53.95;98569.53;5033160;28;20042;-91
2021/05/09 08:35:02;;;;;;;2.20;0.50;;;;;;;22.08;51.57;98570.84;5013755;28;20026;-93
2021/05/09 08:37:27;;;;;;;6.63;0.77;;;;;;;22.00;52.70;98574.66;5019076;28;20403;-92
2021/05/09 08:39:53;;;;;;;5.43;1.00;;;;;;;22.62;49.15;98565.66;4995172;28;20021;-92
2021/05/09 08:42:19;;;;;;;11.40;0.77;;;;;;;22.62;48.18;98565.66;5014827;28;20037;-92
2021/05/09 08:44:50;;;;;;;4.10;0.77;;;;;;;23.15;48.47;98567.56;5012362;28;20419;-92
2021/05/09 08:47:20;;;;;;;2.60;0.50;;;;;;;22.96;48.92;98569.47;4992638;28;20038;-91
2021/05/09 08:49:46;;;;;;;2.58;0.85;;;;;;;23.62;48.39;98564.06;4995165;28;20026;-92
2021/05/09 08:52:12;;;;;;;4.07;0.90;;;;;;;23.84;46.44;98564.34;4995310;28;20045;-91
2021/05/09 08:54:37;;;;;;;3.53;1.10;;;;;;;23.89;45.45;98567.91;5013880;28;20116;-90
2021/05/09 08:57:04;;;;;;;6.13;1.00;;;;;;;24.76;43.21;98566.13;5013205;28;20030;-91
2021/05/09 08:59:29;;;;;;;2.70;0.80;;;;;;;25.12;42.83;98574.81;5008308;28;20068;-91
2021/05/09 09:01:56;;;;;;;4.00;1.02;;;;;;;24.74;43.24;98568.22;5011127;28;20029;-92
2021/05/09 09:04:21;;;;;;;5.80;0.95;;;;;;;24.29;43.21;98552.88;5011530;28;20105;-92
2021/05/09 09:06:47;;;;;;;4.32;1.00;;;;;;;24.47;42.36;98546.53;5011879;28;20120;-92
2021/05/09 09:09:24;;;;;;;3.90;0.77;;;;;;;24.52;42.47;98550.13;5011924;28;20065;-92
2021/05/09 09:11:56;;;;;;;5.05;1.02;;;;;;;24.42;43.50;98549.91;5009123;28;20443;-92
2021/05/09 09:14:26;;;;;;;4.75;0.93;;;;;;;24.41;41.85;98551.00;5001100;28;20060;-92
2021/05/09 09:17:10;;;;;;;4.43;0.90;;;;;;;25.25;41.22;98546.81;5011385;28;20056;-92
2021/05/09 09:19:36;;;;;;;4.88;1.25;;;;;;;26.07;38.03;98532.63;5012069;28;20029;-91
2021/05/09 09:22:01;;;;;;;5.28;1.42;;;;;;;26.36;37.28;98528.91;5010195;28;20026;-91
2021/05/09 09:24:27;;;;;;;3.65;0.95;;;;;;;26.66;38.40;98523.06;5007371;28;20034;-91
2021/05/09 09:26:53;;;;;;;5.85;1.23;;;;;;;26.11;37.95;98533.75;5010633;28;20025;-93
2021/05/09 09:29:19;;;;;;;5.30;1.30;;;;;;;26.28;38.83;98543.63;5009435;28;20038;-92
2021/05/09 09:31:45;;;;;;;5.82;1.35;;;;;;;26.19;36.46;98526.31;5009805;28;20034;-92
2021/05/09 09:34:11;;;;;;;6.95;1.23;;;;;;;26.11;38.19;98525.69;5001924;28;20116;-92
2021/05/09 09:36:38;;;;;;;10.20;1.33;;;;;;;26.84;36.81;98527.25;5006364;28;20037;-94
2021/05/09 09:39:05;;;;;;;5.07;1.45;;;;;;;26.88;36.97;98529.16;5010768;28;20057;-91
2021/05/09 09:41:31;;;;;;;6.50;1.52;;;;;;;26.58;37.34;98518.09;5005186;28;20427;-95
2021/05/09 09:44:09;;;;;;;7.45;1.88;;;;;;;26.85;35.62;98534.25;5001955;28;20026;-94
2021/05/09 09:46:35;;;;;;;4.90;1.23;;;;;;;25.51;36.30;98527.34;5003098;28;20010;-96
2021/05/09 09:49:03;;;;;;;5.70;1.50;;;;;;;27.24;34.83;98518.69;5009511;28;20022;-92
2021/05/09 09:51:29;;;;;;;7.45;1.60;;;;;;;26.79;35.69;98528.00;5011068;28;20037;-93
2021/05/09 09:53:56;;;;;;;5.22;1.65;;;;;;;27.02;33.84;98507.19;4981970;28;20026;-93
2021/05/09 09:56:25;;;;;;;9.73;2.00;;;;;;;27.33;34.74;98504.72;4999915;28;20034;-92
2021/05/09 09:58:56;;;;;;;7.50;1.83;;;;;;;28.68;32.27;98484.19;5009478;28;20057;-93
2021/05/09 10:01:28;;;;;;;9.45;1.90;;;;;;;29.00;31.95;98481.19;5003235;28;20110;-93
2021/05/09 10:03:56;;;;;;;7.07;1.52;;;;;;;28.51;32.58;98481.72;5003285;28;20403;-92
2021/05/09 10:06:22;;;;;;;8.35;1.63;;;;;;;28.95;31.58;98496.59;5013847;28;20510;-92
2021/05/09 10:08:48;;;;;;;9.32;2.10;;;;;;;30.02;30.68;98499.06;5015249;28;20026;-93
2021/05/09 10:11:15;;;;;;;8.13;1.73;;;;;;;28.64;30.31;98507.41;5014755;28;20117;-94
2021/05/09 10:13:41;;;;;;;6.95;1.63;;;;;;;27.77;31.36;98520.59;5015473;28;20014;-93
2021/05/09 10:16:07;;;;;;;6.90;2.05;;;;;;;27.98;31.89;98510.72;5015605;28;20035;-92
2021/05/09 10:18:34;;;;;;;5.35;1.80;;;;;;;27.12;35.69;98504.56;5015000;28;20030;-92
2021/05/09 10:21:00;;;;;;;6.75;2.35;;;;;;;28.07;31.89;98514.53;5014808;28;20034;-92
2021/05/09 10:23:26;;;;;;;12.40;2.65;;;;;;;26.62;33.70;98503.06;5015294;28;20100;-92
2021/05/09 10:25:57;;;;;;;6.65;1.67;;;;;;;27.36;32.50;98504.22;4997872;28;20113;-93
2021/05/09 10:28:25;;;;;;;8.73;1.85;;;;;;;26.94;36.92;98491.53;4997554;28;20034;-92
2021/05/09 10:30:56;;;;;;;6.82;1.77;;;;;;;27.64;32.16;98506.50;5013534;28;20156;-93
2021/05/09 10:33:42;;;;;;;5.63;1.58;;;;;;;26.75;32.88;98497.28;5011305;28;20049;-92
2021/05/09 10:36:28;;;;;;;4.70;1.33;;;;;;;26.63;34.40;98496.66;5010613;28;20033;-93
2021/05/09 10:39:15;;;;;;;7.97;1.70;;;;;;;26.79;34.18;98492.19;5008752;28;20113;-94
2021/05/09 10:41:53;;;;;;;7.65;1.73;;;;;;;26.22;35.55;98491.63;5009725;28;20033;-92
2021/05/09 10:44:47;;;;;;;12.07;2.10;;;;;;;25.61;36.83;98486.34;5005700;28;20432;-92
2021/05/09 10:50:18;;;;;;;6.50;1.23;;;;;;;26.24;35.46;98488.69;5238547;23;20050;-95
2021/05/09 10:52:46;;;;;;;5.43;1.33;;;;;;;27.48;32.97;98477.88;5031273;28;20036;-95
2021/05/09 10:55:36;;;;;;;7.40;1.52;;;;;;;26.79;33.45;98481.44;5040416;28;20036;-95
2021/05/09 10:58:07;;;;;;;8.65;1.52;;;;;;;27.30;32.80;98473.72;5035878;28;20356;-96
2021/05/09 11:00:57;;;;;;;10.25;1.27;;;;;;;26.95;34.10;98482.34;5038200;28;20026;-96
2021/05/09 11:03:35;;;;;;;4.50;1.23;;;;;;;27.35;33.47;98481.03;5033174;28;20041;-96
2021/05/09 11:06:02;;;;;;;5.75;1.30;;;;;;;27.61;32.99;98479.28;5031964;28;20442;-96
2021/05/09 11:08:51;;;;;;;8.30;1.77;;;;;;;27.56;34.10;98471.97;5038698;28;20083;-96
2021/05/09 11:11:21;;;;;;;8.55;2.13;;;;;;;27.63;32.49;98474.44;5022612;28;20072;-96
2021/05/09 11:16:29;;;;;;;8.18;1.40;;;;;;;27.06;35.17;98478.66;5038585;28;20104;-96
2021/05/09 11:19:04;;;;;;;6.97;2.10;;;;;;;26.02;36.20;98480.66;5041401;28;20029;-95
2021/05/09 11:21:32;;;;;;;5.10;1.50;;;;;;;27.12;34.09;98484.91;5042056;28;20038;-95
2021/05/09 11:23:59;;;;;;;6.45;1.65;;;;;;;26.78;36.30;98472.53;5042367;28;20021;-95
2021/05/09 11:26:29;;;;;;;11.23;2.28;;;;;;;26.17;36.95;98474.66;5037762;28;20490;-96
2021/05/09 11:29:08;;;;;;;7.90;1.73;;;;;;;26.86;35.77;98476.66;5042703;28;20044;-96
2021/05/09 11:31:35;;;;;;;5.97;1.45;;;;;;;27.40;35.95;98478.38;5048926;28;20084;-96
2021/05/09 11:34:02;;;;;;;5.32;1.23;;;;;;;27.97;33.17;98476.75;5176089;23;20492;-92
2021/05/09 11:36:29;;;;;;;6.47;1.25;;;;;;;27.80;32.75;98482.31;4997690;28;20023;-96